Time;durP1;ratioP1;P1;durP2;ratioP2;P2;SDS_P1;SDS_P2;PMS_P1;PMS_P2;Temp;Humidity;BMP_temperature;BMP_pressure;BME280_temperature;BME280_humidity;BME280_pressure;Samples;Min_cycle;Max_cycle;Signal;HPM_P1;HPM_P2
2021/03/17 00:00:41;;;;;;;5.82;2.90;;;;;;;;;;5027584;28;20876;-69
2021/03/17 00:03:07;;;;;;;4.03;2.40;;;;;;;;;;5028276;28;20390;-69
2021/03/17 00:05:34;;;;;;;4.38;2.40;;;;;;;;;;5028250;28;20418;-69
2021/03/17 00:08:00;;;;;;;4.28;2.45;;;;;;;;;;5028344;28;20391;-69
2021/03/17 00:10:27;;;;;;;4.47;2.30;;;;;;;;;;5027749;28;20386;-69
2021/03/17 00:12:54;;;;;;;5.50;2.80;;;;;;;;;;5028062;28;21111;-69
2021/03/17 00:15:24;;;;;;;4.15;2.60;;;;;;;;;;5027840;28;20436;-69
2021/03/17 00:17:50;;;;;;;5.82;2.63;;;;;;;;;;5027866;28;20962;-69
2021/03/17 00:20:17;;;;;;;5.43;2.60;;;;;;;;;;5027570;28;20418;-69
2021/03/17 00:22:43;;;;;;;4.15;2.22;;;;;;;;;;5028283;28;20417;-69
2021/03/17 00:25:09;;;;;;;4.55;2.38;;;;;;;;;;5027868;28;20893;-69
2021/03/17 00:27:35;;;;;;;4.28;2.58;;;;;;;;;;5028527;28;20405;-69
2021/03/17 00:30:01;;;;;;;4.95;2.47;;;;;;;;;;5027845;28;20882;-69
2021/03/17 00:32:27;;;;;;;5.17;2.70;;;;;;;;;;5027657;28;20419;-69
2021/03/17 00:34:53;;;;;;;3.90;2.30;;;;;;;;;;5027505;28;20430;-69
2021/03/17 00:37:19;;;;;;;3.90;2.40;;;;;;;;;;5028014;28;20387;-69
2021/03/17 00:39:45;;;;;;;3.63;2.25;;;;;;;;;;5027654;28;20426;-69
2021/03/17 00:42:11;;;;;;;3.97;2.20;;;;;;;;;;5027747;28;20434;-69
2021/03/17 00:44:37;;;;;;;3.83;2.42;;;;;;;;;;5028095;28;20466;-69
2021/03/17 00:47:03;;;;;;;3.92;2.20;;;;;;;;;;5027794;28;20391;-69
2021/03/17 00:49:29;;;;;;;3.73;2.37;;;;;;;;;;5027957;28;20451;-69
2021/03/17 00:51:55;;;;;;;5.03;2.45;;;;;;;;;;5028004;28;20401;-69
2021/03/17 00:54:22;;;;;;;4.70;2.03;;;;;;;;;;5008454;28;20381;-69
2021/03/17 00:56:48;;;;;;;4.10;2.45;;;;;;;;;;5026761;28;20402;-69
2021/03/17 00:59:14;;;;;;;4.63;2.58;;;;;;;;;;5027940;28;20410;-69
2021/03/17 01:01:40;;;;;;;4.50;2.50;;;;;;;;;;5026842;28;20402;-69
2021/03/17 01:04:06;;;;;;;3.60;2.28;;;;;;;;;;5025248;28;20387;-69
2021/03/17 01:06:32;;;;;;;5.35;2.83;;;;;;;;;;5008041;28;20380;-69
2021/03/17 01:08:58;;;;;;;3.92;2.60;;;;;;;;;;5007397;28;20474;-69
2021/03/17 01:11:24;;;;;;;4.07;2.47;;;;;;;;;;5007692;28;20393;-69
2021/03/17 01:13:50;;;;;;;4.32;2.72;;;;;;;;;;5008245;28;20534;-69
2021/03/17 01:16:16;;;;;;;3.97;2.58;;;;;;;;;;5007525;28;20988;-69
2021/03/17 01:18:42;;;;;;;4.85;2.92;;;;;;;;;;5007196;28;21174;-69
2021/03/17 01:21:08;;;;;;;5.85;3.35;;;;;;;;;;5007674;28;20403;-69
2021/03/17 01:23:34;;;;;;;4.50;3.10;;;;;;;;;;5007677;28;20385;-69
2021/03/17 01:26:00;;;;;;;4.75;2.90;;;;;;;;;;5008124;28;20887;-69
2021/03/17 01:28:26;;;;;;;4.55;3.10;;;;;;;;;;5008080;28;20393;-69
2021/03/17 01:30:55;;;;;;;4.75;3.25;;;;;;;;;;5007509;28;20380;-69
2021/03/17 01:33:24;;;;;;;5.00;3.33;;;;;;;;;;5007871;28;20476;-69
2021/03/17 01:35:50;;;;;;;4.30;3.03;;;;;;;;;;5007970;28;20434;-69
2021/03/17 01:38:15;;;;;;;5.50;3.38;;;;;;;;;;5011728;28;20392;-69
2021/03/17 01:40:43;;;;;;;5.28;3.20;;;;;;;;;;5011618;28;20395;-69
2021/03/17 01:43:09;;;;;;;4.85;3.33;;;;;;;;;;5010886;28;20392;-69
2021/03/17 01:45:35;;;;;;;4.93;3.35;;;;;;;;;;5010953;28;20488;-69
2021/03/17 01:48:01;;;;;;;5.10;3.35;;;;;;;;;;5010567;28;20471;-69
2021/03/17 01:50:32;;;;;;;5.97;4.00;;;;;;;;;;5010913;28;20464;-69
2021/03/17 01:53:11;;;;;;;5.63;3.60;;;;;;;;;;5011189;28;20462;-69
2021/03/17 01:55:39;;;;;;;5.45;4.22;;;;;;;;;;5010892;28;20401;-69
2021/03/17 01:58:05;;;;;;;5.88;4.18;;;;;;;;;;5010793;28;20393;-69
2021/03/17 02:00:31;;;;;;;5.78;3.85;;;;;;;;;;5010432;28;20397;-69
2021/03/17 02:02:58;;;;;;;5.40;4.10;;;;;;;;;;5011090;28;20516;-69
2021/03/17 02:05:26;;;;;;;6.13;3.83;;;;;;;;;;5023925;28;20414;-69
2021/03/17 02:07:54;;;;;;;7.38;4.25;;;;;;;;;;5030477;28;20838;-69
2021/03/17 02:10:21;;;;;;;5.70;4.00;;;;;;;;;;5030149;28;20371;-70
2021/03/17 02:13:06;;;;;;;6.30;4.13;;;;;;;;;;5030820;28;20371;-69
2021/03/17 02:15:39;;;;;;;5.80;3.72;;;;;;;;;;5030000;28;20392;-69
2021/03/17 02:18:07;;;;;;;8.45;4.10;;;;;;;;;;5030660;28;20397;-69
2021/03/17 02:20:42;;;;;;;5.70;4.20;;;;;;;;;;5030215;28;20861;-69
2021/03/17 02:23:30;;;;;;;4.65;3.35;;;;;;;;;;5030653;28;20912;-68
2021/03/17 02:26:09;;;;;;;5.47;3.67;;;;;;;;;;5029446;28;20983;-69
2021/03/17 02:28:53;;;;;;;6.10;3.50;;;;;;;;;;5022677;28;20731;-68
2021/03/17 02:31:42;;;;;;;5.63;3.35;;;;;;;;;;5030046;28;20425;-68
2021/03/17 02:34:09;;;;;;;5.13;3.10;;;;;;;;;;5029939;28;20988;-68
2021/03/17 02:36:40;;;;;;;6.00;3.40;;;;;;;;;;5030269;28;21043;-68
2021/03/17 02:39:07;;;;;;;5.63;3.33;;;;;;;;;;5030025;28;20783;-68
2021/03/17 02:41:37;;;;;;;6.50;3.00;;;;;;;;;;5029558;28;20749;-68
2021/03/17 02:44:07;;;;;;;8.65;3.33;;;;;;;;;;5030317;28;20417;-68
2021/03/17 02:46:33;;;;;;;5.18;2.60;;;;;;;;;;5029515;28;20437;-68
2021/03/17 02:49:01;;;;;;;4.33;2.40;;;;;;;;;;5029094;28;20558;-68
2021/03/17 02:51:31;;;;;;;4.80;2.22;;;;;;;;;;5029434;28;20793;-68
2021/03/17 02:54:00;;;;;;;5.88;2.40;;;;;;;;;;5029865;28;20379;-68
2021/03/17 02:56:27;;;;;;;4.63;2.20;;;;;;;;;;5029677;28;20441;-69
2021/03/17 02:58:53;;;;;;;4.35;2.50;;;;;;;;;;5029897;28;20469;-68
2021/03/17 03:01:20;;;;;;;3.67;1.90;;;;;;;;;;5028952;28;20461;-69
2021/03/17 03:03:47;;;;;;;4.00;2.00;;;;;;;;;;5029304;28;20394;-68
2021/03/17 03:06:13;;;;;;;3.97;1.98;;;;;;;;;;5009167;28;20738;-68
2021/03/17 03:08:41;;;;;;;4.10;2.22;;;;;;;;;;5009661;28;20368;-69
2021/03/17 03:11:08;;;;;;;4.80;2.30;;;;;;;;;;5009554;28;20937;-69
2021/03/17 03:13:35;;;;;;;3.72;1.65;;;;;;;;;;5009631;28;20377;-68
2021/03/17 03:16:01;;;;;;;3.85;1.88;;;;;;;;;;5009664;28;20852;-68
2021/03/17 03:18:28;;;;;;;4.78;1.95;;;;;;;;;;5009832;28;20767;-68
2021/03/17 03:20:55;;;;;;;4.95;2.00;;;;;;;;;;5009342;28;20392;-68
2021/03/17 03:23:21;;;;;;;4.65;2.10;;;;;;;;;;5009489;28;20384;-69
2021/03/17 03:25:48;;;;;;;5.20;2.10;;;;;;;;;;5009318;28;20804;-68
2021/03/17 03:28:15;;;;;;;4.53;1.88;;;;;;;;;;5009381;28;20443;-68
2021/03/17 03:30:43;;;;;;;4.07;1.88;;;;;;;;;;5008656;28;20874;-68
2021/03/17 03:33:09;;;;;;;4.40;2.00;;;;;;;;;;5008634;28;20385;-69
2021/03/17 03:35:35;;;;;;;5.47;2.05;;;;;;;;;;5009140;28;20396;-69
2021/03/17 03:38:04;;;;;;;5.10;2.15;;;;;;;;;;5008715;28;20373;-69
2021/03/17 03:40:30;;;;;;;4.97;2.10;;;;;;;;;;5009549;28;20431;-69
2021/03/17 03:42:56;;;;;;;4.43;2.00;;;;;;;;;;5008478;28;20839;-68
2021/03/17 03:45:22;;;;;;;4.30;2.20;;;;;;;;;;5009569;28;20385;-68
2021/03/17 03:47:48;;;;;;;5.40;2.40;;;;;;;;;;5008915;28;20468;-68
2021/03/17 03:50:15;;;;;;;3.78;1.98;;;;;;;;;;5009112;28;20377;-68
2021/03/17 03:53:01;;;;;;;3.83;2.10;;;;;;;;;;5008235;28;20391;-68
2021/03/17 03:55:28;;;;;;;4.35;2.10;;;;;;;;;;5007793;28;20400;-68
2021/03/17 03:57:55;;;;;;;6.30;2.25;;;;;;;;;;5008735;28;20413;-68
2021/03/17 04:00:24;;;;;;;4.05;2.10;;;;;;;;;;5008853;28;20426;-68
2021/03/17 04:02:52;;;;;;;6.22;2.72;;;;;;;;;;5008466;28;20396;-69
2021/03/17 04:05:20;;;;;;;6.70;2.38;;;;;;;;;;5007862;28;20420;-68
2021/03/17 04:07:48;;;;;;;6.47;2.55;;;;;;;;;;5008053;28;20399;-69
2021/03/17 04:10:14;;;;;;;4.50;2.60;;;;;;;;;;5008714;28;20743;-68
2021/03/17 04:12:41;;;;;;;5.13;2.50;;;;;;;;;;5008736;28;20852;-68
2021/03/17 04:15:07;;;;;;;6.70;2.70;;;;;;;;;;5011278;28;20377;-68
2021/03/17 04:17:40;;;;;;;6.07;2.58;;;;;;;;;;5007836;28;20409;-69
2021/03/17 04:20:10;;;;;;;6.75;2.80;;;;;;;;;;5008721;28;20883;-68
2021/03/17 04:22:37;;;;;;;4.55;2.60;;;;;;;;;;5007825;28;20508;-68
2021/03/17 04:25:06;;;;;;;5.70;2.30;;;;;;;;;;5010834;28;20873;-68
2021/03/17 04:27:33;;;;;;;4.57;2.33;;;;;;;;;;5008690;28;20381;-68
2021/03/17 04:30:00;;;;;;;4.77;2.40;;;;;;;;;;5008031;28;20381;-70
2021/03/17 04:32:26;;;;;;;6.95;2.60;;;;;;;;;;5008487;28;20385;-68
2021/03/17 04:34:53;;;;;;;5.87;2.03;;;;;;;;;;5008308;28;20598;-68
2021/03/17 04:37:19;;;;;;;4.87;2.20;;;;;;;;;;5008192;28;20962;-68
2021/03/17 04:39:46;;;;;;;6.45;2.28;;;;;;;;;;5008621;28;20420;-68
2021/03/17 04:42:12;;;;;;;4.45;2.00;;;;;;;;;;5010487;28;21091;-68
2021/03/17 04:44:39;;;;;;;4.33;2.00;;;;;;;;;;5008191;28;20463;-68
2021/03/17 04:47:06;;;;;;;4.75;2.00;;;;;;;;;;5008350;28;20387;-68
2021/03/17 04:49:33;;;;;;;4.03;1.90;;;;;;;;;;5008299;28;20424;-68
2021/03/17 04:52:00;;;;;;;5.35;2.22;;;;;;;;;;5008362;28;20890;-69
2021/03/17 04:54:27;;;;;;;7.60;2.63;;;;;;;;;;5008171;28;20817;-68
2021/03/17 04:56:53;;;;;;;4.50;2.20;;;;;;;;;;5008708;28;20385;-68
2021/03/17 04:59:21;;;;;;;4.80;2.47;;;;;;;;;;5007550;28;20855;-69
2021/03/17 05:01:47;;;;;;;4.50;2.30;;;;;;;;;;5010396;28;20387;-68
2021/03/17 05:04:14;;;;;;;8.07;2.83;;;;;;;;;;5011367;28;20407;-68
2021/03/17 05:06:44;;;;;;;5.47;2.40;;;;;;;;;;5027542;28;20391;-68
2021/03/17 05:09:12;;;;;;;6.35;2.85;;;;;;;;;;5030474;28;20390;-68
2021/03/17 05:11:38;;;;;;;4.87;2.77;;;;;;;;;;5029195;28;20389;-68
2021/03/17 05:14:06;;;;;;;6.93;3.07;;;;;;;;;;5031389;28;20391;-70
2021/03/17 05:16:34;;;;;;;7.20;3.60;;;;;;;;;;5031485;28;20955;-68
2021/03/17 05:19:00;;;;;;;5.50;3.10;;;;;;;;;;5030864;28;20872;-68
2021/03/17 05:21:27;;;;;;;6.55;3.28;;;;;;;;;;5031983;28;20375;-68
2021/03/17 05:23:53;;;;;;;6.22;3.22;;;;;;;;;;5031110;28;20838;-68
2021/03/17 05:26:19;;;;;;;5.88;3.35;;;;;;;;;;5031349;28;20380;-69
2021/03/17 05:28:45;;;;;;;7.18;3.22;;;;;;;;;;5030637;28;20390;-68
2021/03/17 05:31:12;;;;;;;5.97;3.42;;;;;;;;;;5031162;28;20397;-68
2021/03/17 05:33:38;;;;;;;5.63;3.33;;;;;;;;;;5030996;28;20458;-69
2021/03/17 05:36:04;;;;;;;6.07;3.10;;;;;;;;;;5031176;28;20389;-68
2021/03/17 05:38:30;;;;;;;7.70;3.20;;;;;;;;;;5031067;28;20506;-68
2021/03/17 05:40:56;;;;;;;6.60;2.85;;;;;;;;;;5031074;28;20833;-68
2021/03/17 05:43:23;;;;;;;7.93;3.00;;;;;;;;;;5030795;28;21104;-68
2021/03/17 05:45:49;;;;;;;5.30;2.47;;;;;;;;;;5030647;28;20387;-68
2021/03/17 05:48:16;;;;;;;5.63;2.78;;;;;;;;;;5031577;28;20463;-69
2021/03/17 05:50:43;;;;;;;8.18;2.80;;;;;;;;;;5031030;28;20375;-68
2021/03/17 05:53:09;;;;;;;6.07;2.87;;;;;;;;;;5031411;28;20417;-68
2021/03/17 05:55:36;;;;;;;4.93;2.55;;;;;;;;;;5030320;28;20379;-69
2021/03/17 05:58:03;;;;;;;7.65;3.03;;;;;;;;;;5030901;28;20395;-68
2021/03/17 06:00:29;;;;;;;6.20;2.83;;;;;;;;;;5014339;28;20427;-68
2021/03/17 06:02:55;;;;;;;11.25;3.33;;;;;;;;;;5031269;28;20422;-68
2021/03/17 06:05:21;;;;;;;6.03;3.08;;;;;;;;;;5029944;28;20415;-68
2021/03/17 06:07:47;;;;;;;6.38;2.95;;;;;;;;;;5030695;28;20395;-68
2021/03/17 06:10:14;;;;;;;5.78;2.80;;;;;;;;;;5030630;28;20379;-69
2021/03/17 06:12:41;;;;;;;5.82;3.05;;;;;;;;;;5030654;28;20729;-68
2021/03/17 06:15:07;;;;;;;5.85;2.78;;;;;;;;;;5012636;28;20422;-68
2021/03/17 06:17:39;;;;;;;6.22;2.65;;;;;;;;;;5030387;28;20473;-68
2021/03/17 06:20:07;;;;;;;5.55;2.55;;;;;;;;;;5030327;28;20542;-68
2021/03/17 06:22:36;;;;;;;5.03;2.40;;;;;;;;;;5045687;28;20378;-69
2021/03/17 06:25:03;;;;;;;5.53;2.30;;;;;;;;;;5029844;28;20480;-68
2021/03/17 06:27:30;;;;;;;4.80;2.28;;;;;;;;;;5032935;28;20858;-68
2021/03/17 06:29:57;;;;;;;7.13;3.08;;;;;;;;;;5030281;28;20483;-68
2021/03/17 06:32:23;;;;;;;5.80;2.70;;;;;;;;;;5030399;28;20394;-68
2021/03/17 06:34:50;;;;;;;5.57;2.80;;;;;;;;;;5029797;28;20844;-68
2021/03/17 06:37:16;;;;;;;5.50;2.55;;;;;;;;;;5030293;28;20378;-69
2021/03/17 06:39:42;;;;;;;7.20;2.80;;;;;;;;;;5029922;28;20457;-68
2021/03/17 06:42:09;;;;;;;5.40;2.90;;;;;;;;;;5030093;28;20379;-68
2021/03/17 06:44:35;;;;;;;5.63;2.80;;;;;;;;;;5029354;28;20949;-69
2021/03/17 06:47:21;;;;;;;8.35;3.00;;;;;;;;;;5034359;28;20395;-68
2021/03/17 06:49:51;;;;;;;7.22;2.85;;;;;;;;;;5029510;28;20403;-69
2021/03/17 06:52:35;;;;;;;10.38;3.20;;;;;;;;;;5029961;28;20418;-68
2021/03/17 06:55:19;;;;;;;8.23;2.97;;;;;;;;;;5029642;28;20391;-68
2021/03/17 06:57:54;;;;;;;5.47;2.40;;;;;;;;;;5029459;28;20549;-68
2021/03/17 07:00:22;;;;;;;5.75;2.28;;;;;;;;;;5028964;28;20423;-68
2021/03/17 07:02:56;;;;;;;6.15;2.33;;;;;;;;;;5037520;28;20886;-69
2021/03/17 07:05:30;;;;;;;8.43;2.65;;;;;;;;;;5014356;28;20805;-68
2021/03/17 07:07:57;;;;;;;6.95;2.38;;;;;;;;;;4998600;28;20409;-68
2021/03/17 07:10:43;;;;;;;5.57;2.30;;;;;;;;;;5010282;28;21013;-68
2021/03/17 07:13:10;;;;;;;7.47;2.23;;;;;;;;;;5007671;28;20460;-68
2021/03/17 07:15:37;;;;;;;5.53;2.50;;;;;;;;;;5013328;28;20436;-68
2021/03/17 07:18:16;;;;;;;5.07;1.98;;;;;;;;;;5007740;28;20404;-69
2021/03/17 07:20:43;;;;;;;6.35;2.03;;;;;;;;;;5007371;28;20420;-68
2021/03/17 07:23:28;;;;;;;6.47;2.25;;;;;;;;;;5008458;28;20388;-69
2021/03/17 07:26:03;;;;;;;6.73;2.13;;;;;;;;;;5007151;28;20396;-68
2021/03/17 07:28:29;;;;;;;6.57;2.03;;;;;;;;;;5002166;28;20487;-68
2021/03/17 07:30:55;;;;;;;8.10;2.60;;;;;;;;;;5008865;28;20468;-68
2021/03/17 07:33:24;;;;;;;7.15;2.28;;;;;;;;;;4998139;28;20484;-68
2021/03/17 07:35:50;;;;;;;5.60;1.80;;;;;;;;;;5005519;28;20451;-68
2021/03/17 07:38:16;;;;;;;6.85;2.03;;;;;;;;;;5003747;28;20404;-69
2021/03/17 07:40:44;;;;;;;7.95;1.90;;;;;;;;;;5004998;28;20428;-68
2021/03/17 07:43:10;;;;;;;6.70;2.13;;;;;;;;;;5002133;28;20419;-69
2021/03/17 07:45:36;;;;;;;5.13;1.95;;;;;;;;;;5002072;28;20407;-68
2021/03/17 07:48:10;;;;;;;8.55;2.00;;;;;;;;;;5007222;28;20871;-68
2021/03/17 07:50:37;;;;;;;7.35;2.00;;;;;;;;;;5000591;28;20419;-68
2021/03/17 07:53:07;;;;;;;5.18;1.60;;;;;;;;;;4994151;28;20404;-69
2021/03/17 07:55:34;;;;;;;6.72;2.00;;;;;;;;;;4992257;28;20915;-69
2021/03/17 07:58:00;;;;;;;8.50;1.85;;;;;;;;;;4989708;28;20503;-68
2021/03/17 08:00:26;;;;;;;7.18;1.88;;;;;;;;;;4994932;28;20427;-68
2021/03/17 08:02:53;;;;;;;5.55;1.63;;;;;;;;;;4979055;28;20409;-68
2021/03/17 08:05:20;;;;;;;5.63;1.77;;;;;;;;;;5002793;28;20419;-69
2021/03/17 08:07:47;;;;;;;6.82;1.90;;;;;;;;;;5022601;28;20411;-68
2021/03/17 08:10:13;;;;;;;6.80;1.95;;;;;;;;;;5019318;28;20460;-69
2021/03/17 08:12:43;;;;;;;9.65;2.20;;;;;;;;;;5027415;28;20382;-69
2021/03/17 08:15:12;;;;;;;10.60;2.00;;;;;;;;;;5021936;28;20505;-70
2021/03/17 08:17:38;;;;;;;6.10;1.65;;;;;;;;;;5023275;28;20417;-69
2021/03/17 08:20:13;;;;;;;8.20;1.90;;;;;;;;;;5018707;28;20748;-69
2021/03/17 08:22:39;;;;;;;7.15;2.13;;;;;;;;;;5024350;28;20465;-68
2021/03/17 08:25:05;;;;;;;9.50;2.33;;;;;;;;;;5012392;28;20403;-69
2021/03/17 08:27:31;;;;;;;8.73;2.00;;;;;;;;;;5007579;28;20410;-69
2021/03/17 08:30:09;;;;;;;7.88;2.13;;;;;;;;;;5011303;28;20395;-70
2021/03/17 08:32:55;;;;;;;10.57;1.92;;;;;;;;;;5023106;28;20411;-68
2021/03/17 08:35:21;;;;;;;8.25;1.67;;;;;;;;;;5002745;28;20526;-69
2021/03/17 08:37:49;;;;;;;6.32;1.80;;;;;;;;;;5029329;28;20447;-69
2021/03/17 08:40:27;;;;;;;9.18;2.67;;;;;;;;;;5035551;28;20459;-70
2021/03/17 08:42:55;;;;;;;7.22;1.77;;;;;;;;;;5036372;28;20431;-69
2021/03/17 08:45:22;;;;;;;6.32;1.88;;;;;;;;;;5035692;28;20395;-70
2021/03/17 08:47:48;;;;;;;7.40;2.15;;;;;;;;;;5033149;28;20421;-69
2021/03/17 08:50:21;;;;;;;7.90;2.22;;;;;;;;;;5040543;28;20720;-70
2021/03/17 08:52:51;;;;;;;8.63;2.40;;;;;;;;;;5034804;28;20489;-69
2021/03/17 08:55:17;;;;;;;7.32;2.15;;;;;;;;;;5037152;28;20394;-71
2021/03/17 08:57:51;;;;;;;9.48;2.30;;;;;;;;;;5037078;28;20445;-70
2021/03/17 09:00:37;;;;;;;11.65;2.97;;;;;;;;;;5031912;28;20885;-70
2021/03/17 09:03:03;;;;;;;7.88;2.17;;;;;;;;;;5024229;28;21174;-70
2021/03/17 09:05:29;;;;;;;11.13;2.60;;;;;;;;;;4993675;28;1301074;-69
2021/03/17 09:08:03;;;;;;;10.18;2.50;;;;;;;;;;5019176;28;20766;-70
2021/03/17 09:10:49;;;;;;;11.23;2.40;;;;;;;;;;5040078;28;20407;-70
2021/03/17 09:13:16;;;;;;;11.18;2.50;;;;;;;;;;5042178;28;20413;-70
2021/03/17 09:15:48;;;;;;;10.77;2.58;;;;;;;;;;5030575;28;20391;-69
2021/03/17 09:18:14;;;;;;;8.73;2.25;;;;;;;;;;5028491;28;20395;-70
2021/03/17 09:20:41;;;;;;;13.70;3.20;;;;;;;;;;5029156;28;21117;-69
2021/03/17 09:23:15;;;;;;;10.32;2.60;;;;;;;;;;5033691;28;20387;-69
2021/03/17 09:26:00;;;;;;;10.50;2.50;;;;;;;;;;5028985;28;20971;-68
2021/03/17 09:28:27;;;;;;;11.05;2.78;;;;;;;;;;5030674;28;20391;-69
2021/03/17 09:31:05;;;;;;;12.30;2.70;;;;;;;;;;5000692;28;20949;-69
2021/03/17 09:33:33;;;;;;;9.40;2.97;;;;;;;;;;5033446;28;20407;-69
2021/03/17 09:36:00;;;;;;;12.93;2.75;;;;;;;;;;5036178;28;20458;-68
2021/03/17 09:38:32;;;;;;;14.82;2.78;;;;;;;;;;5037961;28;20414;-68
2021/03/17 09:41:15;;;;;;;13.20;2.60;;;;;;;;;;5030936;28;20463;-69
2021/03/17 09:43:45;;;;;;;8.80;2.45;;;;;;;;;;5028452;28;20402;-69
2021/03/17 09:46:31;;;;;;;9.93;2.22;;;;;;;;;;5022915;28;20395;-70
2021/03/17 09:49:13;;;;;;;9.65;2.30;;;;;;;;;;5026152;28;20418;-70
2021/03/17 09:51:42;;;;;;;12.55;2.35;;;;;;;;;;5026381;28;20974;-70
2021/03/17 09:54:09;;;;;;;10.30;2.53;;;;;;;;;;5030211;28;20399;-69
2021/03/17 09:56:36;;;;;;;10.65;2.55;;;;;;;;;;5023691;28;20485;-69
2021/03/17 09:59:38;;;;;;;8.45;2.47;;;;;;;;;;5026048;28;21003;-69
2021/03/17 10:02:11;;;;;;;9.18;2.40;;;;;;;;;;4950810;28;20545;-69
2021/03/17 10:04:42;;;;;;;12.55;2.45;;;;;;;;;;5009465;28;20416;-70
2021/03/17 10:07:10;;;;;;;11.17;2.60;;;;;;;;;;5014671;28;20947;-69
2021/03/17 10:09:37;;;;;;;9.00;2.22;;;;;;;;;;5008960;28;20743;-69
2021/03/17 10:12:03;;;;;;;10.65;2.20;;;;;;;;;;5007784;28;20416;-69
2021/03/17 10:14:29;;;;;;;12.90;2.80;;;;;;;;;;5006615;28;20786;-69
2021/03/17 10:16:56;;;;;;;8.55;2.30;;;;;;;;;;5010129;28;20392;-69
2021/03/17 10:19:22;;;;;;;11.15;2.35;;;;;;;;;;5010249;28;20423;-69
2021/03/17 10:21:48;;;;;;;10.30;2.72;;;;;;;;;;5010115;28;20427;-69
2021/03/17 10:24:15;;;;;;;12.68;2.78;;;;;;;;;;5010358;28;20383;-69
2021/03/17 10:26:41;;;;;;;9.38;2.53;;;;;;;;;;5010511;28;20376;-69
2021/03/17 10:29:08;;;;;;;10.93;2.78;;;;;;;;;;5010407;28;20396;-69
2021/03/17 10:31:34;;;;;;;12.15;2.50;;;;;;;;;;5009553;28;20393;-69
2021/03/17 10:34:00;;;;;;;8.27;2.20;;;;;;;;;;5009242;28;20385;-69
2021/03/17 10:36:27;;;;;;;7.70;1.88;;;;;;;;;;5010116;28;20376;-69
2021/03/17 10:38:53;;;;;;;10.55;2.47;;;;;;;;;;5010471;28;20737;-69
2021/03/17 10:41:38;;;;;;;10.00;2.47;;;;;;;;;;5009824;28;20388;-69
2021/03/17 10:44:16;;;;;;;8.65;2.00;;;;;;;;;;5010148;28;20728;-69
2021/03/17 10:47:02;;;;;;;10.07;2.33;;;;;;;;;;5009636;28;20455;-69
2021/03/17 10:49:29;;;;;;;8.10;1.95;;;;;;;;;;5007484;28;20413;-69
2021/03/17 10:51:56;;;;;;;14.05;2.33;;;;;;;;;;5007336;28;20455;-70
2021/03/17 10:54:35;;;;;;;12.05;2.30;;;;;;;;;;5009937;28;20466;-70
2021/03/17 10:57:04;;;;;;;9.25;1.92;;;;;;;;;;5007656;28;20397;-69
2021/03/17 10:59:34;;;;;;;8.00;2.20;;;;;;;;;;5007017;28;20512;-69
2021/03/17 11:02:19;;;;;;;8.70;1.92;;;;;;;;;;5008891;28;20400;-69
2021/03/17 11:05:04;;;;;;;6.22;1.73;;;;;;;;;;5008227;28;20415;-68
2021/03/17 11:07:49;;;;;;;6.20;1.73;;;;;;;;;;5008303;28;20488;-69
2021/03/17 11:10:33;;;;;;;5.40;1.48;;;;;;;;;;5007879;28;20411;-68
2021/03/17 11:12:59;;;;;;;7.22;1.45;;;;;;;;;;5005684;28;20443;-68
2021/03/17 11:15:27;;;;;;;4.85;1.40;;;;;;;;;;5007746;28;20405;-68
2021/03/17 11:17:54;;;;;;;6.07;2.10;;;;;;;;;;5007182;28;20945;-68
2021/03/17 11:20:20;;;;;;;5.25;1.55;;;;;;;;;;5005898;28;20433;-69
2021/03/17 11:22:46;;;;;;;6.93;1.90;;;;;;;;;;5006337;28;20410;-69
2021/03/17 11:25:13;;;;;;;5.78;1.75;;;;;;;;;;5008925;28;20685;-70
2021/03/17 11:27:42;;;;;;;5.32;1.75;;;;;;;;;;5008889;28;20727;-68
2021/03/17 11:30:09;;;;;;;4.87;1.60;;;;;;;;;;5007538;28;20426;-70
2021/03/17 11:32:35;;;;;;;6.53;1.77;;;;;;;;;;5008771;28;20540;-71
2021/03/17 11:35:02;;;;;;;6.10;1.83;;;;;;;;;;5008631;28;20951;-71
2021/03/17 11:37:28;;;;;;;5.47;1.60;;;;;;;;;;5009038;28;20380;-71
2021/03/17 11:39:54;;;;;;;7.22;1.65;;;;;;;;;;5008562;28;20882;-70
2021/03/17 11:42:20;;;;;;;5.05;1.50;;;;;;;;;;5008978;28;20384;-70
2021/03/17 11:44:46;;;;;;;4.93;1.60;;;;;;;;;;5008712;28;20450;-72
2021/03/17 11:47:12;;;;;;;4.68;1.33;;;;;;;;;;4991321;28;20397;-71
2021/03/17 11:49:38;;;;;;;4.82;1.33;;;;;;;;;;5008732;28;20875;-71
2021/03/17 11:52:05;;;;;;;5.15;1.38;;;;;;;;;;5008430;28;20815;-72
2021/03/17 11:54:31;;;;;;;4.55;1.38;;;;;;;;;;5008671;28;20431;-71
2021/03/17 11:56:57;;;;;;;4.63;1.53;;;;;;;;;;5008246;28;20401;-73
2021/03/17 11:59:24;;;;;;;6.00;1.50;;;;;;;;;;5008394;28;20409;-71
2021/03/17 12:01:50;;;;;;;4.65;1.40;;;;;;;;;;5005765;28;20400;-71
2021/03/17 12:04:16;;;;;;;7.45;1.60;;;;;;;;;;5007353;28;20405;-71
2021/03/17 12:06:43;;;;;;;5.57;1.63;;;;;;;;;;5007861;28;20534;-72
2021/03/17 12:09:09;;;;;;;4.20;1.27;;;;;;;;;;5008188;28;20424;-71
2021/03/17 12:11:35;;;;;;;5.72;1.30;;;;;;;;;;5004690;28;20449;-69
2021/03/17 12:14:02;;;;;;;3.47;1.35;;;;;;;;;;5005731;28;20487;-71
2021/03/17 12:16:28;;;;;;;6.22;1.25;;;;;;;;;;5005060;28;20438;-72
2021/03/17 12:18:54;;;;;;;4.45;1.58;;;;;;;;;;5002350;28;20468;-71
2021/03/17 12:21:20;;;;;;;4.97;1.40;;;;;;;;;;5005024;28;20478;-72
2021/03/17 12:23:46;;;;;;;5.63;1.23;;;;;;;;;;5006390;28;20471;-71
2021/03/17 12:26:12;;;;;;;5.10;1.38;;;;;;;;;;5002414;28;20401;-71
2021/03/17 12:28:38;;;;;;;5.15;1.30;;;;;;;;;;5007263;28;20381;-71
2021/03/17 12:31:04;;;;;;;4.50;1.38;;;;;;;;;;5005865;28;20396;-71
2021/03/17 12:33:30;;;;;;;6.22;1.55;;;;;;;;;;5005722;28;20511;-72
2021/03/17 12:35:56;;;;;;;5.07;1.20;;;;;;;;;;5007256;28;20459;-71
2021/03/17 12:38:22;;;;;;;4.40;1.30;;;;;;;;;;4988277;28;20411;-72
2021/03/17 12:40:48;;;;;;;4.32;1.30;;;;;;;;;;5003357;28;20436;-73
2021/03/17 12:43:14;;;;;;;4.43;1.50;;;;;;;;;;5001868;28;20408;-73
2021/03/17 12:45:40;;;;;;;4.88;1.40;;;;;;;;;;5005011;28;20447;-71
2021/03/17 12:48:06;;;;;;;6.67;1.57;;;;;;;;;;5007389;28;20705;-71
2021/03/17 12:50:32;;;;;;;6.00;1.60;;;;;;;;;;5006252;28;21303;-72
2021/03/17 12:52:58;;;;;;;6.57;1.80;;;;;;;;;;5005753;28;20447;-72
2021/03/17 12:55:24;;;;;;;5.35;1.50;;;;;;;;;;5007866;28;20463;-71
2021/03/17 12:57:50;;;;;;;5.85;1.67;;;;;;;;;;5004634;28;20401;-72
2021/03/17 13:00:17;;;;;;;5.87;1.50;;;;;;;;;;5004797;28;20544;-72
2021/03/17 13:02:44;;;;;;;5.75;1.48;;;;;;;;;;5007571;28;20389;-71
2021/03/17 13:05:10;;;;;;;7.00;1.90;;;;;;;;;;5011584;28;20420;-73
2021/03/17 13:07:36;;;;;;;5.15;1.30;;;;;;;;;;5013563;28;20386;-72
2021/03/17 13:10:04;;;;;;;4.82;1.30;;;;;;;;;;5027606;28;20770;-72
2021/03/17 13:12:32;;;;;;;5.60;1.70;;;;;;;;;;5021412;28;20401;-74
2021/03/17 13:14:57;;;;;;;4.45;1.40;;;;;;;;;;5004282;28;20811;-73
2021/03/17 13:17:24;;;;;;;5.40;1.57;;;;;;;;;;5019970;28;20411;-72
2021/03/17 13:19:50;;;;;;;6.68;1.98;;;;;;;;;;4999013;28;20519;-73
2021/03/17 13:22:16;;;;;;;6.57;1.95;;;;;;;;;;5005561;28;20955;-72
2021/03/17 13:24:42;;;;;;;7.03;2.07;;;;;;;;;;5014521;28;20406;-72
2021/03/17 13:27:08;;;;;;;6.50;2.00;;;;;;;;;;5009438;28;20472;-73
2021/03/17 13:29:34;;;;;;;6.78;2.00;;;;;;;;;;5009641;28;20488;-73
2021/03/17 13:32:00;;;;;;;5.13;2.00;;;;;;;;;;5022647;28;20549;-71
2021/03/17 13:34:26;;;;;;;7.65;2.33;;;;;;;;;;5025841;28;20401;-73
2021/03/17 13:36:52;;;;;;;7.47;2.10;;;;;;;;;;5016557;28;20474;-71
2021/03/17 13:39:18;;;;;;;7.80;2.13;;;;;;;;;;5025594;28;20427;-73
2021/03/17 13:41:44;;;;;;;7.22;1.90;;;;;;;;;;5027792;28;20402;-71
2021/03/17 13:44:10;;;;;;;6.53;1.80;;;;;;;;;;5026786;28;20399;-71
2021/03/17 13:46:36;;;;;;;7.13;1.95;;;;;;;;;;5027590;28;20485;-71
2021/03/17 13:49:02;;;;;;;6.10;1.70;;;;;;;;;;5012765;28;20427;-70
2021/03/17 13:51:29;;;;;;;7.43;1.85;;;;;;;;;;5028179;28;20406;-71
2021/03/17 13:53:55;;;;;;;5.70;1.83;;;;;;;;;;5009117;28;20401;-71
2021/03/17 13:56:21;;;;;;;4.78;1.60;;;;;;;;;;5029357;28;20389;-72
2021/03/17 13:58:48;;;;;;;6.35;1.90;;;;;;;;;;5027434;28;20426;-72
2021/03/17 14:01:14;;;;;;;6.60;1.80;;;;;;;;;;5029481;28;20391;-72
2021/03/17 14:03:40;;;;;;;4.57;1.67;;;;;;;;;;5011893;28;20388;-71
2021/03/17 14:06:07;;;;;;;5.28;1.70;;;;;;;;;;5029727;28;20880;-71
2021/03/17 14:08:33;;;;;;;5.78;1.60;;;;;;;;;;5026858;28;20434;-72
2021/03/17 14:10:59;;;;;;;6.05;1.90;;;;;;;;;;5029020;28;20426;-72
2021/03/17 14:13:25;;;;;;;5.15;1.65;;;;;;;;;;5006524;28;20718;-71
2021/03/17 14:15:51;;;;;;;4.87;1.40;;;;;;;;;;5028286;28;20387;-72
2021/03/17 14:18:19;;;;;;;5.95;1.50;;;;;;;;;;5021468;28;20387;-72
2021/03/17 14:20:45;;;;;;;4.03;1.60;;;;;;;;;;5027471;28;20920;-72
2021/03/17 14:23:11;;;;;;;5.10;1.52;;;;;;;;;;5022085;28;20427;-73
2021/03/17 14:25:38;;;;;;;4.83;1.60;;;;;;;;;;4994884;28;20498;-72
2021/03/17 14:28:04;;;;;;;4.00;1.50;;;;;;;;;;5018119;28;20464;-72
2021/03/17 14:30:31;;;;;;;2.85;1.10;;;;;;;;;;5012997;28;20951;-73
2021/03/17 14:32:57;;;;;;;4.97;1.10;;;;;;;;;;5017548;28;20431;-71
2021/03/17 14:35:23;;;;;;;3.88;1.30;;;;;;;;;;5024780;28;20454;-72
2021/03/17 14:37:49;;;;;;;4.70;1.10;;;;;;;;;;5025250;28;20438;-71
2021/03/17 14:40:15;;;;;;;5.28;1.45;;;;;;;;;;5021963;28;20458;-73
2021/03/17 14:42:41;;;;;;;3.15;1.27;;;;;;;;;;5024477;28;20472;-72
2021/03/17 14:45:09;;;;;;;3.92;1.10;;;;;;;;;;5023979;28;20913;-71
2021/03/17 14:47:35;;;;;;;3.20;1.10;;;;;;;;;;5028066;28;20958;-72